createdAt,value
2023-03-29T00:01:50.254Z,4.42
2023-03-29T00:05:57.469Z,4.30
2023-03-29T00:10:00.210Z,4.44
2023-03-29T00:14:03.000Z,4.34
2023-03-29T00:18:05.881Z,4.46
2023-03-29T00:22:10.008Z,4.44
2023-03-29T00:26:12.798Z,4.18
2023-03-29T00:30:16.184Z,4.25
2023-03-29T00:34:18.984Z,3.99
2023-03-29T00:38:23.069Z,4.09
2023-03-29T00:42:26.099Z,3.79
2023-03-29T00:46:29.990Z,4.01
2023-03-29T00:50:36.462Z,3.94
2023-03-29T00:54:41.299Z,3.26
2023-03-29T00:58:45.872Z,3.64
2023-03-29T01:02:54.568Z,3.76
2023-03-29T01:06:59.701Z,3.68
2023-03-29T01:11:08.246Z,3.39
2023-03-29T01:15:12.746Z,3.12
2023-03-29T01:19:21.451Z,3.32
2023-03-29T01:23:38.836Z,2.96
2023-03-29T01:27:52.748Z,2.56
2023-03-29T01:31:59.465Z,2.03
2023-03-29T01:36:06.337Z,2.18
2023-03-29T01:40:09.707Z,2.62
2023-03-29T01:44:18.452Z,2.15
2023-03-29T01:48:25.879Z,2.24
2023-03-29T01:52:34.845Z,2.09
2023-03-29T01:56:40.147Z,1.85
2023-03-29T02:00:45.240Z,2.29
2023-03-29T02:04:51.794Z,1.97
2023-03-29T02:08:55.785Z,2.07
2023-03-29T02:12:58.990Z,1.82
2023-03-29T02:17:16.642Z,2.12
2023-03-29T02:21:25.531Z,1.73
2023-03-29T02:25:28.441Z,1.51
2023-03-29T02:29:31.393Z,1.27
2023-03-29T02:33:39.471Z,1.20
2023-03-29T02:37:44.223Z,1.20
2023-03-29T02:41:48.653Z,0.98
2023-03-29T02:45:51.397Z,1.13
2023-03-29T02:49:55.482Z,1.11
2023-03-29T02:54:01.981Z,0.94
2023-03-29T02:58:08.466Z,1.72
2023-03-29T03:02:13.801Z,1.31
2023-03-29T03:06:18.375Z,0.75
2023-03-29T03:10:21.272Z,1.13
2023-03-29T03:14:24.077Z,1.16
2023-03-29T03:18:27.692Z,1.24
2023-03-29T03:22:32.500Z,1.00
2023-03-29T03:26:36.257Z,0.73
2023-03-29T03:30:39.236Z,0.57
2023-03-29T03:34:41.915Z,0.52
2023-03-29T03:38:46.320Z,0.67
2023-03-29T03:42:48.821Z,1.08
2023-03-29T03:46:51.698Z,1.40
2023-03-29T03:50:57.007Z,1.07
2023-03-29T03:55:02.835Z,0.64
2023-03-29T03:59:07.168Z,1.08
2023-03-29T04:03:10.209Z,0.81
2023-03-29T04:07:13.151Z,1.11
2023-03-29T04:11:17.349Z,1.08
2023-03-29T04:15:20.392Z,0.84
2023-03-29T04:19:23.410Z,0.54
2023-03-29T04:23:26.174Z,0.59
2023-03-29T04:27:31.006Z,0.63
2023-03-29T04:31:33.922Z,0.51
2023-03-29T04:35:36.964Z,0.88
2023-03-29T04:39:39.834Z,0.54
2023-03-29T04:43:46.904Z,0.14
2023-03-29T04:47:49.757Z,0.63
2023-03-29T04:51:53.374Z,0.85
2023-03-29T04:55:57.980Z,0.21
2023-03-29T05:00:02.163Z,0.14
2023-03-29T05:04:05.881Z,0.60
2023-03-29T05:08:09.611Z,0.77
2023-03-29T05:12:12.352Z,0.25
2023-03-29T05:16:16.984Z,0.43
2023-03-29T05:20:19.946Z,0.76
2023-03-29T05:24:23.126Z,0.84
2023-03-29T05:28:26.407Z,0.63
2023-03-29T05:32:31.340Z,0.94
2023-03-29T05:36:34.569Z,1.17
2023-03-29T05:40:37.331Z,0.97
2023-03-29T05:44:40.055Z,0.81
2023-03-29T05:48:44.264Z,0.94
2023-03-29T05:52:47.940Z,1.24
2023-03-29T05:56:51.209Z,1.09
2023-03-29T06:00:53.995Z,1.13
2023-03-29T06:04:58.201Z,1.29
2023-03-29T06:09:02.331Z,1.51
2023-03-29T06:13:06.139Z,1.72
2023-03-29T06:17:09.015Z,1.59
2023-03-29T06:21:16.341Z,1.79
2023-03-29T06:25:19.822Z,1.94
2023-03-29T06:29:22.552Z,2.20
2023-03-29T06:33:25.406Z,2.20
2023-03-29T06:37:30.481Z,2.26
2023-03-29T06:41:33.156Z,2.42
2023-03-29T06:45:37.721Z,2.56
2023-03-29T06:49:40.714Z,2.67
2023-03-29T06:53:44.933Z,2.56
2023-03-29T06:57:48.087Z,2.86
2023-03-29T07:01:52.617Z,2.96
2023-03-29T07:06:01.431Z,3.07
2023-03-29T07:10:06.474Z,3.11
2023-03-29T07:14:09.802Z,3.09
2023-03-29T07:18:13.238Z,3.32
2023-03-29T07:22:16.439Z,3.41
2023-03-29T07:26:29.402Z,3.66
2023-03-29T07:30:33.174Z,3.64
2023-03-29T07:34:36.982Z,3.79
2023-03-29T07:38:40.145Z,4.04
2023-03-29T07:42:45.084Z,4.00
2023-03-29T07:46:48.421Z,4.02
2023-03-29T07:50:51.529Z,4.35
2023-03-29T07:54:54.256Z,4.38
2023-03-29T07:58:58.252Z,4.37
2023-03-29T08:03:02.048Z,5.00
2023-03-29T08:07:05.904Z,5.22
2023-03-29T08:11:10.144Z,5.45
2023-03-29T08:15:15.290Z,6.11
2023-03-29T08:19:18.367Z,6.31
2023-03-29T08:23:21.286Z,6.47
2023-03-29T08:27:24.181Z,6.74
2023-03-29T08:31:28.501Z,6.73
2023-03-29T08:35:31.651Z,6.95
2023-03-29T08:39:35.473Z,6.94
2023-03-29T08:43:50.489Z,7.09
2023-03-29T08:47:59.509Z,7.40
2023-03-29T08:52:04.617Z,7.50
2023-03-29T08:56:10.525Z,8.20
2023-03-29T09:00:21.668Z,8.80
2023-03-29T09:04:28.418Z,9.24
2023-03-29T09:08:31.506Z,10.01
2023-03-29T09:12:44.302Z,10.33
2023-03-29T09:16:52.955Z,10.44
2023-03-29T09:21:02.188Z,9.62
2023-03-29T09:25:11.661Z,9.48
2023-03-29T09:29:32.013Z,10.90
2023-03-29T09:33:42.782Z,11.27
2023-03-29T09:37:47.569Z,11.62
2023-03-29T09:41:52.813Z,11.38
2023-03-29T09:45:57.262Z,11.92
2023-03-29T09:50:04.337Z,12.18
2023-03-29T09:54:11.148Z,12.54
2023-03-29T09:58:17.056Z,12.98
2023-03-29T10:02:21.121Z,12.31
2023-03-29T10:06:26.835Z,12.22
2023-03-29T10:10:32.954Z,12.41
2023-03-29T10:14:38.347Z,12.76
2023-03-29T10:18:42.597Z,12.85
2023-03-29T10:22:50.112Z,13.43
2023-03-29T10:26:55.823Z,14.07
2023-03-29T10:31:00.720Z,13.72
2023-03-29T10:35:09.734Z,13.52
2023-03-29T10:39:15.558Z,13.66
2023-03-29T10:43:24.558Z,13.62
2023-03-29T10:47:28.086Z,13.85
2023-03-29T10:51:31.228Z,13.71
2023-03-29T10:55:35.116Z,14.01
2023-03-29T10:59:41.963Z,14.70
2023-03-29T11:04:00.589Z,14.55
2023-03-29T11:08:14.974Z,14.99
2023-03-29T11:12:20.880Z,14.52
2023-03-29T11:16:30.765Z,14.38
2023-03-29T11:20:39.956Z,14.14
2023-03-29T11:24:53.719Z,14.22
2023-03-29T11:28:59.375Z,13.60
2023-03-29T11:33:13.905Z,13.87
2023-03-29T11:37:20.641Z,14.29
2023-03-29T11:41:25.773Z,14.49
2023-03-29T11:45:31.363Z,14.62
2023-03-29T11:49:39.533Z,14.53
2023-03-29T11:53:47.540Z,14.74
2023-03-29T11:57:54.020Z,15.66
2023-03-29T12:02:03.370Z,14.68
2023-03-29T12:06:14.419Z,14.87
2023-03-29T12:10:19.704Z,15.02
2023-03-29T12:14:28.094Z,14.57
2023-03-29T12:18:34.456Z,14.29
2023-03-29T12:22:39.103Z,14.19
2023-03-29T12:26:51.792Z,13.77
2023-03-29T12:31:00.193Z,13.62
2023-03-29T12:35:22.162Z,13.47
2023-03-29T12:39:26.846Z,13.16
2023-03-29T12:43:32.464Z,13.47
2023-03-29T12:47:43.374Z,13.18
2023-03-29T12:51:46.474Z,13.32
2023-03-29T12:55:55.933Z,12.84
2023-03-29T13:00:12.341Z,13.29
2023-03-29T13:04:20.350Z,13.42
2023-03-29T13:08:24.571Z,13.90
2023-03-29T13:12:32.948Z,14.09
2023-03-29T13:16:36.972Z,13.93
2023-03-29T13:20:46.744Z,13.68
2023-03-29T13:25:08.285Z,14.08
2023-03-29T13:29:33.727Z,13.84
2023-03-29T13:33:46.285Z,13.84
2023-03-29T13:37:57.064Z,14.34
2023-03-29T13:42:09.825Z,14.50
2023-03-29T13:46:23.272Z,14.32
2023-03-29T13:50:34.633Z,15.07
2023-03-29T13:54:41.878Z,14.81
2023-03-29T13:58:48.170Z,15.22
2023-03-29T14:02:55.229Z,15.41
2023-03-29T14:06:58.942Z,15.59
2023-03-29T14:11:02.378Z,15.73
2023-03-29T14:15:07.472Z,15.73
2023-03-29T14:19:16.451Z,15.06
2023-03-29T14:23:22.297Z,15.70
2023-03-29T14:27:24.997Z,15.54
2023-03-29T14:31:31.705Z,15.39
2023-03-29T14:35:36.364Z,15.46
2023-03-29T14:39:41.011Z,15.34
2023-03-29T14:43:43.779Z,15.81
2023-03-29T14:47:47.493Z,15.41
2023-03-29T14:51:52.929Z,15.34
2023-03-29T14:55:56.773Z,15.25
2023-03-29T15:00:02.258Z,15.30
2023-03-29T15:04:07.204Z,15.44
2023-03-29T15:08:15.457Z,15.63
2023-03-29T15:12:18.695Z,15.78
2023-03-29T15:16:22.812Z,15.90
2023-03-29T15:20:27.333Z,15.80
2023-03-29T15:24:33.463Z,15.87
2023-03-29T15:28:37.277Z,15.83
2023-03-29T15:32:41.499Z,15.59
2023-03-29T15:36:46.645Z,15.95
2023-03-29T15:40:51.004Z,15.98
2023-03-29T15:44:56.375Z,15.92
2023-03-29T15:48:59.469Z,15.97
2023-03-29T15:53:14.159Z,16.05
2023-03-29T15:57:23.661Z,16.24
2023-03-29T16:01:33.813Z,16.07
2023-03-29T16:05:36.813Z,16.04
2023-03-29T16:09:39.768Z,16.20
2023-03-29T16:13:44.177Z,16.21
2023-03-29T16:17:47.307Z,16.02
2023-03-29T16:21:50.606Z,15.86
2023-03-29T16:25:53.480Z,15.90
2023-03-29T16:29:58.954Z,15.80
2023-03-29T16:34:01.817Z,15.79
2023-03-29T16:38:04.841Z,15.80
2023-03-29T16:42:07.611Z,15.48
2023-03-29T16:46:12.881Z,15.40
2023-03-29T16:50:18.109Z,15.27
2023-03-29T16:54:20.956Z,15.19
2023-03-29T16:58:24.181Z,15.13
2023-03-29T17:02:28.301Z,15.03
2023-03-29T17:06:32.313Z,14.64
2023-03-29T17:10:35.013Z,14.39
2023-03-29T17:14:38.154Z,14.31
2023-03-29T17:18:42.230Z,14.19
2023-03-29T17:22:45.154Z,14.01
2023-03-29T17:26:48.031Z,13.77
2023-03-29T17:30:50.980Z,13.15
2023-03-29T17:34:55.145Z,13.42
2023-03-29T17:43:02.940Z,13.24
2023-03-29T17:47:05.926Z,12.77
2023-03-29T17:51:10.368Z,12.53
2023-03-29T17:55:13.929Z,12.46
2023-03-29T17:59:16.691Z,12.22
2023-03-29T18:03:19.809Z,11.89
2023-03-29T18:07:23.995Z,12.20
2023-03-29T18:11:27.308Z,11.90
2023-03-29T18:15:30.050Z,11.97
2023-03-29T18:19:32.852Z,11.67
2023-03-29T18:23:39.754Z,11.62
2023-03-29T18:27:42.543Z,11.21
2023-03-29T18:31:45.997Z,11.39
2023-03-29T18:35:50.553Z,10.78
2023-03-29T18:39:54.840Z,10.18
2023-03-29T18:44:00.124Z,10.52
2023-03-29T18:48:05.610Z,10.23
2023-03-29T18:52:09.102Z,10.62
2023-03-29T18:56:13.458Z,10.30
2023-03-29T19:00:17.567Z,10.29
2023-03-29T19:04:20.671Z,10.50
2023-03-29T19:08:23.916Z,10.51
2023-03-29T19:12:28.075Z,10.15
2023-03-29T19:16:31.064Z,9.98
2023-03-29T19:20:33.912Z,9.75
2023-03-29T19:24:36.808Z,10.11
2023-03-29T19:28:40.864Z,10.13
2023-03-29T19:32:43.632Z,9.99
2023-03-29T19:36:47.138Z,10.21
2023-03-29T19:40:51.553Z,9.52
2023-03-29T19:44:55.671Z,10.06
2023-03-29T19:48:59.819Z,9.85
2023-03-29T19:53:02.522Z,9.46
2023-03-29T19:57:07.353Z,9.75
2023-03-29T20:01:11.678Z,9.47
2023-03-29T20:05:16.306Z,9.56
2023-03-29T20:09:19.092Z,9.73
2023-03-29T20:13:31.261Z,9.35
2023-03-29T20:17:41.649Z,9.55
2023-03-29T20:21:44.488Z,9.83
2023-03-29T20:25:47.996Z,9.12
2023-03-29T20:29:50.763Z,9.17
2023-03-29T20:33:57.059Z,8.67
2023-03-29T20:38:00.713Z,8.74
2023-03-29T20:42:03.521Z,8.92
2023-03-29T20:46:14.386Z,8.87
2023-03-29T20:50:20.706Z,8.71
2023-03-29T20:54:23.798Z,8.74
2023-03-29T20:58:27.319Z,8.21
2023-03-29T21:02:30.161Z,8.32
2023-03-29T21:06:34.357Z,8.51
2023-03-29T21:10:37.599Z,8.32
2023-03-29T21:14:40.367Z,8.03
2023-03-29T21:18:43.491Z,8.33
2023-03-29T21:22:47.677Z,7.96
2023-03-29T21:26:51.125Z,8.13
2023-03-29T21:30:54.031Z,7.84
2023-03-29T21:34:56.793Z,7.88
2023-03-29T21:39:01.263Z,7.90
2023-03-29T21:43:04.076Z,7.97
2023-03-29T21:47:06.863Z,8.05
2023-03-29T21:51:10.072Z,8.03
2023-03-29T21:55:14.531Z,8.11
2023-03-29T21:59:17.404Z,8.13
2023-03-29T22:03:20.437Z,8.28
2023-03-29T22:07:28.046Z,8.42
2023-03-29T22:11:32.549Z,8.20
2023-03-29T22:15:36.065Z,8.34
2023-03-29T22:19:39.879Z,8.37
2023-03-29T22:23:43.549Z,8.53
2023-03-29T22:27:49.243Z,8.58
2023-03-29T22:31:52.339Z,8.45
2023-03-29T22:35:55.157Z,8.63
2023-03-29T22:39:57.990Z,8.52
2023-03-29T22:44:02.400Z,8.74
2023-03-29T22:48:05.665Z,8.73
2023-03-29T22:52:08.859Z,8.67
2023-03-29T22:56:11.562Z,8.77
2023-03-29T23:00:17.546Z,8.49
2023-03-29T23:04:20.482Z,8.23
2023-03-29T23:08:23.621Z,8.43
2023-03-29T23:12:27.150Z,8.05
2023-03-29T23:16:31.706Z,7.76
2023-03-29T23:20:35.382Z,7.82
2023-03-29T23:24:38.207Z,7.99
2023-03-29T23:28:41.068Z,7.50
2023-03-29T23:32:45.706Z,7.67
2023-03-29T23:36:48.481Z,8.00
2023-03-29T23:40:55.382Z,8.09
2023-03-29T23:44:58.173Z,7.95
2023-03-29T23:49:02.436Z,7.94
2023-03-29T23:53:05.237Z,8.08
2023-03-29T23:57:08.116Z,8.17
